createdAt,value
2022-09-12T00:03:00.941Z,70.07
2022-09-12T00:08:04.970Z,70.94
2022-09-12T00:13:08.966Z,70.52
2022-09-12T00:18:17.445Z,68.99
2022-09-12T00:23:21.260Z,70.38
2022-09-12T00:28:24.273Z,68.52
2022-09-12T00:33:27.171Z,69.54
2022-09-12T00:38:30.075Z,68.77
2022-09-12T00:43:48.646Z,70.11
2022-09-12T00:49:13.600Z,71.12
2022-09-12T00:54:22.389Z,69.42
2022-09-12T00:59:53.678Z,70.09
2022-09-12T01:04:56.786Z,70.04
2022-09-12T01:09:59.895Z,70.76
2022-09-12T01:15:02.674Z,70.33
2022-09-12T01:20:34.786Z,70.54
2022-09-12T01:25:46.393Z,71.04
2022-09-12T01:31:13.363Z,70.43
2022-09-12T01:36:51.088Z,70.64
2022-09-12T01:42:21.113Z,70.85
2022-09-12T01:47:24.335Z,70.14
2022-09-12T01:52:41.577Z,70.63
2022-09-12T01:57:51.747Z,70.76
2022-09-12T02:03:10.533Z,71.04
2022-09-12T02:08:23.153Z,70.71
2022-09-12T02:13:42.647Z,70.72
2022-09-12T02:18:52.524Z,70.73
2022-09-12T02:23:59.825Z,71.73
2022-09-12T02:29:04.578Z,71.06
2022-09-12T02:34:49.666Z,70.22
2022-09-12T02:39:55.417Z,70.21
2022-09-12T02:44:58.505Z,71.07
2022-09-12T02:50:02.020Z,71.14
2022-09-12T02:55:05.927Z,71.12
2022-09-12T03:00:09.650Z,70.75
2022-09-12T03:05:27.208Z,70.67
2022-09-12T03:10:33.236Z,70.70
2022-09-12T03:15:45.048Z,70.46
2022-09-12T03:21:01.366Z,69.98
2022-09-12T03:26:16.046Z,69.84
2022-09-12T03:31:20.193Z,69.65
2022-09-12T03:36:26.257Z,69.89
2022-09-12T03:41:29.062Z,69.90
2022-09-12T03:46:32.279Z,69.47
2022-09-12T03:51:35.378Z,68.83
2022-09-12T03:56:41.764Z,69.20
2022-09-12T04:01:44.567Z,69.10
2022-09-12T04:06:47.471Z,69.53
2022-09-12T04:11:50.275Z,68.50
2022-09-12T04:16:53.232Z,69.13
2022-09-12T04:21:56.186Z,69.20
2022-09-12T04:26:59.407Z,68.81
2022-09-12T04:32:03.938Z,68.04
2022-09-12T04:37:06.848Z,67.86
2022-09-12T04:42:12.614Z,67.70
2022-09-12T04:47:15.512Z,67.34
2022-09-12T04:52:18.362Z,67.01
2022-09-12T04:57:21.221Z,66.60
2022-09-12T05:02:24.014Z,66.43
2022-09-12T05:07:26.820Z,65.80
2022-09-12T05:12:31.325Z,65.79
2022-09-12T05:17:34.112Z,65.88
2022-09-12T05:22:36.966Z,66.38
2022-09-12T05:27:39.869Z,66.03
2022-09-12T05:32:42.675Z,65.85
2022-09-12T05:37:45.617Z,65.78
2022-09-12T05:42:48.587Z,65.70
2022-09-12T05:47:51.498Z,65.83
2022-09-12T05:52:56.279Z,66.09
2022-09-12T05:58:02.113Z,66.50
2022-09-12T06:03:05.572Z,66.95
2022-09-12T06:08:08.425Z,67.36
2022-09-12T06:13:11.346Z,68.39
2022-09-12T06:18:17.203Z,68.83
2022-09-12T06:23:20.109Z,68.71
2022-09-12T06:28:26.600Z,68.63
2022-09-12T06:33:29.608Z,68.75
2022-09-12T06:38:33.468Z,68.55
2022-09-12T06:43:37.019Z,68.94
2022-09-12T06:48:42.132Z,69.30
2022-09-12T06:53:46.856Z,68.90
2022-09-12T06:58:51.354Z,68.45
2022-09-12T07:03:56.634Z,68.08
2022-09-12T07:09:01.515Z,67.50
2022-09-12T07:14:06.497Z,66.90
2022-09-12T07:19:10.394Z,66.20
2022-09-12T07:24:13.291Z,65.47
2022-09-12T07:34:41.107Z,65.49
2022-09-12T07:39:44.259Z,64.95
2022-09-12T07:44:47.429Z,63.03
2022-09-12T07:49:50.334Z,62.66
2022-09-12T07:54:53.545Z,62.06
2022-09-12T07:59:56.656Z,61.89
2022-09-12T08:04:59.555Z,62.03
2022-09-12T08:10:02.679Z,61.82
2022-09-12T08:15:08.946Z,61.26
2022-09-12T08:20:12.688Z,60.23
2022-09-12T08:25:15.675Z,59.49
2022-09-12T08:30:18.578Z,61.81
2022-09-12T08:35:21.588Z,61.69
2022-09-12T08:40:24.710Z,60.43
2022-09-12T08:45:46.818Z,60.42
2022-09-12T08:50:52.722Z,60.82
2022-09-12T08:56:00.543Z,60.72
2022-09-12T09:01:24.557Z,60.31
2022-09-12T09:06:49.051Z,60.14
2022-09-12T09:12:07.625Z,60.62
2022-09-12T09:17:20.561Z,59.98
2022-09-12T09:22:55.424Z,61.25
2022-09-12T09:28:02.367Z,62.22
2022-09-12T09:33:11.538Z,58.93
2022-09-12T09:38:23.480Z,59.07
2022-09-12T09:43:29.929Z,58.42
2022-09-12T09:48:36.292Z,58.67
2022-09-12T09:53:48.679Z,60.09
2022-09-12T09:58:51.584Z,61.01
2022-09-12T10:03:58.938Z,59.43
2022-09-12T10:09:22.306Z,57.30
2022-09-12T10:14:30.811Z,56.55
2022-09-12T10:19:38.961Z,57.16
2022-09-12T10:24:47.054Z,57.00
2022-09-12T10:30:17.976Z,56.19
2022-09-12T10:35:22.798Z,56.51
2022-09-12T10:40:46.059Z,57.98
2022-09-12T10:45:48.958Z,58.46
2022-09-12T10:50:52.478Z,59.07
2022-09-12T10:56:07.463Z,59.73
2022-09-12T11:01:32.879Z,59.32
2022-09-12T11:06:44.816Z,58.55
2022-09-12T11:12:09.733Z,58.86
2022-09-12T11:17:15.500Z,59.95
2022-09-12T11:22:47.080Z,59.68
2022-09-12T11:28:16.304Z,60.91
2022-09-12T11:33:19.306Z,59.81
2022-09-12T11:38:35.538Z,57.86
2022-09-12T11:43:58.001Z,56.76
2022-09-12T11:49:09.909Z,55.82
2022-09-12T11:54:18.641Z,57.16
2022-09-12T12:00:03.029Z,58.49
2022-09-12T12:05:20.571Z,59.90
2022-09-12T12:10:34.218Z,60.27
2022-09-12T12:15:39.421Z,60.08
2022-09-12T12:20:42.897Z,59.58
2022-09-12T12:25:55.526Z,59.10
2022-09-12T12:31:01.337Z,60.01
2022-09-12T12:36:30.321Z,60.37
2022-09-12T12:41:35.984Z,60.80
2022-09-12T12:46:39.241Z,60.72
2022-09-12T12:51:54.077Z,59.43
2022-09-12T12:57:02.660Z,58.32
2022-09-12T13:02:05.672Z,56.94
2022-09-12T13:07:12.069Z,55.81
2022-09-12T13:12:44.094Z,55.91
2022-09-12T13:17:47.461Z,56.62
2022-09-12T13:22:52.140Z,58.48
2022-09-12T13:28:06.432Z,59.70
2022-09-12T13:33:14.550Z,60.02
2022-09-12T13:38:30.264Z,60.11
2022-09-12T13:43:43.442Z,59.77
2022-09-12T13:48:46.913Z,55.56
2022-09-12T13:53:52.429Z,54.43
2022-09-12T13:58:56.940Z,55.18
2022-09-12T14:04:19.088Z,55.87
2022-09-12T14:09:25.465Z,57.42
2022-09-12T14:14:37.019Z,57.82
2022-09-12T14:19:40.078Z,57.99
2022-09-12T14:24:43.739Z,58.21
2022-09-12T14:29:47.627Z,58.05
2022-09-12T14:35:05.687Z,58.71
2022-09-12T14:40:24.487Z,59.02
2022-09-12T14:45:30.440Z,58.10
2022-09-12T14:50:35.854Z,58.68
2022-09-12T14:55:50.539Z,59.61
2022-09-12T15:01:03.938Z,60.27
2022-09-12T15:06:23.335Z,59.45
2022-09-12T15:11:26.436Z,58.15
2022-09-12T15:16:29.337Z,58.42
2022-09-12T15:21:32.444Z,57.96
2022-09-12T15:26:35.355Z,58.46
2022-09-12T15:31:40.573Z,58.54
2022-09-12T15:36:43.428Z,59.02
2022-09-12T15:41:48.203Z,59.62
2022-09-12T15:46:51.276Z,59.41
2022-09-12T15:51:54.080Z,60.17
2022-09-12T15:56:57.072Z,60.49
2022-09-12T16:02:00.322Z,60.94
2022-09-12T16:07:03.304Z,61.15
2022-09-12T16:12:06.672Z,61.34
2022-09-12T16:17:10.406Z,61.76
2022-09-12T16:22:13.335Z,62.38
2022-09-12T16:27:17.877Z,60.93
2022-09-12T16:32:21.193Z,59.51
2022-09-12T16:37:24.275Z,61.68
2022-09-12T16:42:27.405Z,62.03
2022-09-12T16:47:32.459Z,59.88
2022-09-12T16:52:35.775Z,59.83
2022-09-12T16:57:38.987Z,61.88
2022-09-12T17:02:41.917Z,66.60
2022-09-12T17:07:48.184Z,66.43
2022-09-12T17:12:53.554Z,64.19
2022-09-12T17:17:58.251Z,63.91
2022-09-12T17:23:01.187Z,62.88
2022-09-12T17:28:07.777Z,62.51
2022-09-12T17:33:11.214Z,61.34
2022-09-12T17:38:19.345Z,59.38
2022-09-12T17:43:24.937Z,65.98
2022-09-12T17:48:30.838Z,66.07
2022-09-12T17:53:34.787Z,65.15
2022-09-12T17:58:38.512Z,64.24
2022-09-12T18:03:41.414Z,64.04
2022-09-12T18:08:44.318Z,63.82
2022-09-12T18:13:50.652Z,63.60
2022-09-12T18:18:54.263Z,63.56
2022-09-12T18:23:59.386Z,63.44
2022-09-12T18:29:02.284Z,63.63
2022-09-12T18:34:06.420Z,64.08
2022-09-12T18:39:09.781Z,64.23
2022-09-12T18:44:13.582Z,63.87
2022-09-12T18:49:16.775Z,63.28
2022-09-12T18:54:20.594Z,62.97
2022-09-12T18:59:24.420Z,62.74
2022-09-12T19:04:27.893Z,62.83
2022-09-12T19:09:30.953Z,63.31
2022-09-12T19:14:33.951Z,63.70
2022-09-12T19:19:40.467Z,63.75
2022-09-12T19:24:43.750Z,65.28
2022-09-12T19:29:46.860Z,64.93
2022-09-12T19:34:50.287Z,65.33
2022-09-12T19:39:53.137Z,65.38
2022-09-12T19:44:56.194Z,65.90
2022-09-12T19:49:59.208Z,65.79
2022-09-12T19:55:02.306Z,65.82
2022-09-12T20:00:07.037Z,66.31
2022-09-12T20:05:10.106Z,66.80
2022-09-12T20:10:14.394Z,66.69
2022-09-12T20:15:17.867Z,66.72
2022-09-12T20:20:20.717Z,66.16
2022-09-12T20:25:23.616Z,66.19
2022-09-12T20:30:26.724Z,65.45
2022-09-12T20:35:29.569Z,65.57
2022-09-12T20:40:32.532Z,65.13
2022-09-12T20:45:41.687Z,65.28
2022-09-12T20:50:44.589Z,66.06
2022-09-12T20:55:52.194Z,65.70
2022-09-12T21:00:55.119Z,65.77
2022-09-12T21:05:58.018Z,65.15
2022-09-12T21:11:01.427Z,64.88
2022-09-12T21:16:10.634Z,65.76
2022-09-12T21:21:15.824Z,65.89
2022-09-12T21:26:18.841Z,65.58
2022-09-12T21:31:22.001Z,66.06
2022-09-12T21:36:25.373Z,66.52
2022-09-12T21:41:29.090Z,65.64
2022-09-12T21:46:31.949Z,66.67
2022-09-12T21:51:34.897Z,66.94
2022-09-12T21:56:37.901Z,66.54
2022-09-12T22:01:40.740Z,65.94
2022-09-12T22:06:43.814Z,66.12
2022-09-12T22:11:47.128Z,66.12
2022-09-12T22:16:50.132Z,66.14
2022-09-12T22:22:14.130Z,66.20
2022-09-12T22:27:17.403Z,66.40
2022-09-12T22:32:20.353Z,66.81
2022-09-12T22:37:23.150Z,67.03
2022-09-12T22:42:26.747Z,67.23
2022-09-12T22:47:29.674Z,66.44
2022-09-12T22:52:32.475Z,65.57
2022-09-12T22:57:36.443Z,65.23
2022-09-12T23:02:39.426Z,65.65
2022-09-12T23:07:42.317Z,66.17
2022-09-12T23:12:45.238Z,66.82
2022-09-12T23:17:48.604Z,67.97
2022-09-12T23:22:51.746Z,67.17
2022-09-12T23:27:54.584Z,65.65
2022-09-12T23:32:57.447Z,65.15
2022-09-12T23:38:00.555Z,66.26
2022-09-12T23:43:06.533Z,66.48
2022-09-12T23:48:09.946Z,66.61
2022-09-12T23:53:13.977Z,66.99
2022-09-12T23:58:17.292Z,66.55
